Time;durP1;ratioP1;P1;durP2;ratioP2;P2;SDS_P1;SDS_P2;PMS_P1;PMS_P2;Temp;Humidity;BMP_temperature;BMP_pressure;BME280_temperature;BME280_humidity;BME280_pressure;Samples;Min_cycle;Max_cycle;Signal;HPM_P1;HPM_P2
2022/07/01 00:01:05;;;;;;;6.22;5.72;;;;;;;;;;1835161;77;26253;-44
2022/07/01 00:03:34;;;;;;;6.12;5.60;;;;;;;;;;1851249;76;26254;-47
2022/07/01 00:06:01;;;;;;;6.78;6.10;;;;;;;;;;1847011;77;26327;-49
2022/07/01 00:08:28;;;;;;;6.03;5.42;;;;;;;;;;1848079;76;26359;-46
2022/07/01 00:10:56;;;;;;;6.12;5.62;;;;;;;;;;1847727;77;26245;-42
2022/07/01 00:13:23;;;;;;;6.20;5.65;;;;;;;;;;1848388;76;26311;-45
2022/07/01 00:15:50;;;;;;;5.83;5.40;;;;;;;;;;1846757;76;26257;-45
2022/07/01 00:18:20;;;;;;;6.72;6.05;;;;;;;;;;1861326;76;26269;-46
2022/07/01 00:20:47;;;;;;;6.47;5.90;;;;;;;;;;1860800;76;27265;-47
2022/07/01 00:23:16;;;;;;;6.30;5.75;;;;;;;;;;1858918;77;26265;-46
2022/07/01 00:25:44;;;;;;;6.95;5.92;;;;;;;;;;1858090;75;26314;-44
2022/07/01 00:28:11;;;;;;;6.53;5.90;;;;;;;;;;1860635;77;26246;-44
2022/07/01 00:30:39;;;;;;;6.37;5.72;;;;;;;;;;1862427;76;27228;-48
2022/07/01 00:33:06;;;;;;;7.08;5.47;;;;;;;;;;1860709;76;26205;-44
2022/07/01 00:35:33;;;;;;;5.78;5.37;;;;;;;;;;1859178;77;26272;-45
2022/07/01 00:38:00;;;;;;;6.42;5.83;;;;;;;;;;1852062;76;26249;-42
2022/07/01 00:40:28;;;;;;;6.45;5.83;;;;;;;;;;1860258;77;26242;-49
2022/07/01 00:42:55;;;;;;;6.05;5.55;;;;;;;;;;1865571;76;26327;-48
2022/07/01 00:45:22;;;;;;;6.42;5.72;;;;;;;;;;1843079;77;26257;-42
2022/07/01 00:47:50;;;;;;;6.55;5.95;;;;;;;;;;1862377;76;26280;-50
2022/07/01 00:50:17;;;;;;;7.20;5.20;;;;;;;;;;1862902;77;26205;-43
2022/07/01 00:52:45;;;;;;;6.35;5.75;;;;;;;;;;1859358;77;26334;-46
2022/07/01 00:55:14;;;;;;;6.58;5.80;;;;;;;;;;1859237;77;26272;-44
2022/07/01 00:57:42;;;;;;;6.17;5.67;;;;;;;;;;1860187;77;26785;-49
2022/07/01 01:00:11;;;;;;;5.92;5.42;;;;;;;;;;1856429;76;26260;-48
2022/07/01 01:02:38;;;;;;;5.70;5.30;;;;;;;;;;1849945;77;26740;-43
2022/07/01 01:05:07;;;;;;;5.90;5.33;;;;;;;;;;1854702;76;26261;-46
2022/07/01 01:07:35;;;;;;;6.03;5.50;;;;;;;;;;1863325;76;26531;-45
2022/07/01 01:10:03;;;;;;;6.15;5.65;;;;;;;;;;1862875;76;26316;-42
2022/07/01 01:12:30;;;;;;;6.03;5.50;;;;;;;;;;1859813;75;26890;-49
2022/07/01 01:14:58;;;;;;;5.70;5.20;;;;;;;;;;1862302;76;26272;-42
2022/07/01 01:17:25;;;;;;;5.70;5.30;;;;;;;;;;1857446;77;26874;-43
2022/07/01 01:19:53;;;;;;;5.78;5.30;;;;;;;;;;1845937;77;26242;-42
2022/07/01 01:22:20;;;;;;;5.97;5.50;;;;;;;;;;1854327;76;26258;-43
2022/07/01 01:24:48;;;;;;;5.95;5.40;;;;;;;;;;1850762;76;26347;-48
2022/07/01 01:27:16;;;;;;;5.92;5.42;;;;;;;;;;1842385;77;26815;-48
2022/07/01 01:29:44;;;;;;;6.10;5.55;;;;;;;;;;1846696;77;26848;-44
2022/07/01 01:32:11;;;;;;;6.17;5.67;;;;;;;;;;1847727;77;26387;-42
2022/07/01 01:34:40;;;;;;;5.75;5.25;;;;;;;;;;1854546;76;26276;-47
2022/07/01 01:37:08;;;;;;;5.75;5.28;;;;;;;;;;1846853;76;26269;-43
2022/07/01 01:39:40;;;;;;;5.62;5.22;;;;;;;;;;1849314;76;26245;-46
2022/07/01 01:42:05;;;;;;;5.78;5.25;;;;;;;;;;1844153;77;26418;-47
2022/07/01 01:44:33;;;;;;;6.53;5.60;;;;;;;;;;1845665;77;26306;-43
2022/07/01 01:47:01;;;;;;;5.72;5.25;;;;;;;;;;1841381;76;26239;-43
2022/07/01 01:49:28;;;;;;;5.58;5.17;;;;;;;;;;1847671;77;26277;-46
2022/07/01 01:51:57;;;;;;;5.70;5.15;;;;;;;;;;1846341;77;26344;-44
2022/07/01 01:54:25;;;;;;;6.90;5.53;;;;;;;;;;1846687;77;26258;-45
2022/07/01 01:56:52;;;;;;;6.40;5.80;;;;;;;;;;1847810;76;26297;-46
2022/07/01 01:59:20;;;;;;;5.87;5.47;;;;;;;;;;1848012;77;26307;-42
2022/07/01 02:01:47;;;;;;;5.60;5.20;;;;;;;;;;1845283;77;26238;-42
2022/07/01 02:04:14;;;;;;;6.15;5.53;;;;;;;;;;1847243;77;26844;-47
2022/07/01 02:06:42;;;;;;;5.78;5.37;;;;;;;;;;1847883;77;26305;-45
2022/07/01 02:09:09;;;;;;;6.10;5.60;;;;;;;;;;1859331;76;26390;-43
2022/07/01 02:11:37;;;;;;;6.62;6.03;;;;;;;;;;1859637;76;26329;-42
2022/07/01 02:14:04;;;;;;;7.33;6.62;;;;;;;;;;1842811;77;26253;-48
2022/07/01 02:16:31;;;;;;;7.30;6.60;;;;;;;;;;1832882;77;26720;-47
2022/07/01 02:18:59;;;;;;;8.33;7.42;;;;;;;;;;1843010;77;26305;-47
2022/07/01 02:21:26;;;;;;;10.15;7.67;;;;;;;;;;1848054;76;26348;-42
2022/07/01 02:23:53;;;;;;;8.65;7.80;;;;;;;;;;1845490;77;26710;-44
2022/07/01 02:26:21;;;;;;;8.28;7.35;;;;;;;;;;1846967;77;26240;-42
2022/07/01 02:28:48;;;;;;;8.20;7.40;;;;;;;;;;1846892;77;26266;-46
2022/07/01 02:31:16;;;;;;;8.63;7.83;;;;;;;;;;1845538;77;27175;-45
2022/07/01 02:33:43;;;;;;;8.33;7.53;;;;;;;;;;1841865;77;26253;-46
2022/07/01 02:36:10;;;;;;;8.80;7.80;;;;;;;;;;1841369;77;26331;-44
2022/07/01 02:38:37;;;;;;;10.58;8.38;;;;;;;;;;1847860;77;26335;-42
2022/07/01 02:41:05;;;;;;;8.90;8.00;;;;;;;;;;1847697;77;26221;-47
2022/07/01 02:43:32;;;;;;;8.60;7.67;;;;;;;;;;1849904;76;26308;-49
2022/07/01 02:45:59;;;;;;;8.28;7.45;;;;;;;;;;1853911;77;26702;-49
2022/07/01 02:48:27;;;;;;;8.40;7.40;;;;;;;;;;1840787;76;26313;-48
2022/07/01 02:50:54;;;;;;;8.70;7.70;;;;;;;;;;1847304;77;26724;-43
2022/07/01 02:53:22;;;;;;;8.80;7.90;;;;;;;;;;1848238;77;26708;-51
2022/07/01 02:55:49;;;;;;;8.95;7.92;;;;;;;;;;1842063;77;26910;-42
2022/07/01 02:58:16;;;;;;;9.10;8.20;;;;;;;;;;1846721;77;26262;-42
2022/07/01 03:00:44;;;;;;;8.85;8.00;;;;;;;;;;1845271;77;26283;-47
2022/07/01 03:03:11;;;;;;;9.88;8.25;;;;;;;;;;1844536;77;26336;-45
2022/07/01 03:05:39;;;;;;;9.40;8.23;;;;;;;;;;1839356;77;26353;-48
2022/07/01 03:08:06;;;;;;;9.18;8.15;;;;;;;;;;1853365;76;26760;-44
2022/07/01 03:10:33;;;;;;;9.25;8.25;;;;;;;;;;1848178;77;26250;-46
2022/07/01 03:13:01;;;;;;;11.68;8.83;;;;;;;;;;1847697;76;26319;-43
2022/07/01 03:15:29;;;;;;;10.68;8.90;;;;;;;;;;1845827;77;26604;-46
2022/07/01 03:17:56;;;;;;;9.05;8.15;;;;;;;;;;1846636;76;25843;-43
2022/07/01 03:20:23;;;;;;;9.63;8.63;;;;;;;;;;1847690;77;26303;-43
2022/07/01 03:22:51;;;;;;;10.05;8.90;;;;;;;;;;1847675;77;26238;-44
2022/07/01 03:25:18;;;;;;;8.73;7.83;;;;;;;;;;1852254;77;26214;-46
2022/07/01 03:27:45;;;;;;;10.93;8.03;;;;;;;;;;1848763;77;26277;-40
2022/07/01 03:30:14;;;;;;;9.38;7.58;;;;;;;;;;1836248;77;26329;-43
2022/07/01 03:32:41;;;;;;;9.25;8.15;;;;;;;;;;1849370;76;26274;-42
2022/07/01 03:37:55;;;;;;;8.35;7.55;;;;;;;;;;1839220;77;26263;-44
2022/07/01 03:40:23;;;;;;;9.98;7.90;;;;;;;;;;1855736;76;26410;-53
2022/07/01 03:42:51;;;;;;;8.95;8.05;;;;;;;;;;1847394;77;26330;-44
2022/07/01 03:45:18;;;;;;;9.30;8.40;;;;;;;;;;1848750;77;26319;-48
2022/07/01 03:47:46;;;;;;;9.00;8.15;;;;;;;;;;1851527;77;26249;-46
2022/07/01 03:50:14;;;;;;;9.48;8.33;;;;;;;;;;1848827;77;26277;-42
2022/07/01 03:52:42;;;;;;;8.35;7.55;;;;;;;;;;1841212;76;26709;-45
2022/07/01 03:55:10;;;;;;;8.88;8.05;;;;;;;;;;1845483;77;26301;-49
2022/07/01 03:57:38;;;;;;;9.03;7.58;;;;;;;;;;1843652;77;26257;-45
2022/07/01 04:00:06;;;;;;;7.60;6.90;;;;;;;;;;1845288;76;26233;-51
2022/07/01 04:02:33;;;;;;;8.00;7.20;;;;;;;;;;1842836;76;26268;-44
2022/07/01 04:05:01;;;;;;;7.45;6.53;;;;;;;;;;1842255;76;26285;-47
2022/07/01 04:07:28;;;;;;;7.65;6.45;;;;;;;;;;1840995;77;26261;-46
2022/07/01 04:09:55;;;;;;;8.58;6.45;;;;;;;;;;1847757;76;26249;-47
2022/07/01 04:12:23;;;;;;;6.67;6.05;;;;;;;;;;1844084;77;26364;-44
2022/07/01 04:14:50;;;;;;;7.22;5.90;;;;;;;;;;1846691;76;26705;-46
2022/07/01 04:17:18;;;;;;;6.62;5.97;;;;;;;;;;1846436;77;26216;-49
2022/07/01 04:19:45;;;;;;;6.60;5.87;;;;;;;;;;1847392;77;26341;-43
2022/07/01 04:24:58;;;;;;;6.03;5.45;;;;;;;;;;1862062;76;26290;-47
2022/07/01 04:27:25;;;;;;;5.30;4.90;;;;;;;;;;1845610;76;26261;-43
2022/07/01 04:29:52;;;;;;;5.58;5.10;;;;;;;;;;1846072;77;26269;-43
2022/07/01 04:32:19;;;;;;;5.50;5.10;;;;;;;;;;1846476;77;26269;-45
2022/07/01 04:34:47;;;;;;;5.30;4.80;;;;;;;;;;1847094;76;26316;-47
2022/07/01 04:37:14;;;;;;;5.17;4.78;;;;;;;;;;1845140;77;26631;-47
2022/07/01 04:39:41;;;;;;;5.15;4.72;;;;;;;;;;1850415;77;26278;-48
2022/07/01 04:42:08;;;;;;;4.90;4.50;;;;;;;;;;1846494;77;26246;-44
2022/07/01 04:44:37;;;;;;;5.17;4.72;;;;;;;;;;1849346;76;26299;-45
2022/07/01 04:47:05;;;;;;;4.45;4.15;;;;;;;;;;1846870;77;26264;-49
2022/07/01 04:49:32;;;;;;;4.47;4.08;;;;;;;;;;1831577;77;26754;-46
2022/07/01 04:51:59;;;;;;;4.33;3.98;;;;;;;;;;1838220;77;26717;-43
2022/07/01 04:54:27;;;;;;;4.37;4.00;;;;;;;;;;1836655;76;26320;-43
2022/07/01 04:56:54;;;;;;;3.77;3.50;;;;;;;;;;1844250;76;26342;-46
2022/07/01 04:59:21;;;;;;;4.28;3.98;;;;;;;;;;1844524;77;26828;-44
2022/07/01 05:01:49;;;;;;;4.08;3.80;;;;;;;;;;1851619;76;26249;-43
2022/07/01 05:04:17;;;;;;;4.12;3.75;;;;;;;;;;1845419;76;26282;-46
2022/07/01 05:06:44;;;;;;;3.70;3.50;;;;;;;;;;1839343;76;26411;-43
2022/07/01 05:09:12;;;;;;;3.80;3.60;;;;;;;;;;1829369;77;26440;-48
2022/07/01 05:11:40;;;;;;;3.80;3.50;;;;;;;;;;1832685;77;26350;-44
2022/07/01 05:14:07;;;;;;;3.60;3.40;;;;;;;;;;1847188;76;26350;-45
2022/07/01 05:16:35;;;;;;;3.47;3.17;;;;;;;;;;1843124;77;26702;-45
2022/07/01 05:22:01;;;;;;;3.22;3.02;;;;;;;;;;1859248;77;26500;-45
2022/07/01 05:24:30;;;;;;;3.10;2.90;;;;;;;;;;1850160;75;26327;-46
2022/07/01 05:26:58;;;;;;;3.42;3.22;;;;;;;;;;1862294;77;26301;-43
2022/07/01 05:29:25;;;;;;;3.00;2.85;;;;;;;;;;1862792;77;26759;-46
2022/07/01 05:31:53;;;;;;;3.00;2.90;;;;;;;;;;1861715;77;26315;-44
2022/07/01 05:34:20;;;;;;;2.92;2.83;;;;;;;;;;1881050;75;26340;-45
2022/07/01 05:36:48;;;;;;;2.98;2.80;;;;;;;;;;1862830;75;26292;-44
2022/07/01 05:39:15;;;;;;;3.35;3.05;;;;;;;;;;1851489;77;26732;-45
2022/07/01 05:41:42;;;;;;;2.70;2.60;;;;;;;;;;1856621;77;25308;-44
2022/07/01 05:44:10;;;;;;;3.58;2.92;;;;;;;;;;1863654;75;26269;-47
2022/07/01 05:46:37;;;;;;;3.00;2.80;;;;;;;;;;1862931;77;26334;-45
2022/07/01 05:49:04;;;;;;;2.58;2.47;;;;;;;;;;1863042;76;26334;-45
2022/07/01 05:51:32;;;;;;;2.67;2.58;;;;;;;;;;1862577;76;26280;-43
2022/07/01 05:54:00;;;;;;;2.77;2.60;;;;;;;;;;1860941;75;26788;-46
2022/07/01 05:56:27;;;;;;;2.85;2.70;;;;;;;;;;1863422;77;26304;-46
2022/07/01 05:58:55;;;;;;;4.17;2.77;;;;;;;;;;1867465;75;26384;-45
2022/07/01 06:01:23;;;;;;;2.72;2.52;;;;;;;;;;1863141;76;26395;-47
2022/07/01 06:03:50;;;;;;;2.60;2.50;;;;;;;;;;1865549;75;25829;-47
2022/07/01 06:06:19;;;;;;;2.60;2.50;;;;;;;;;;1863056;75;26281;-43
2022/07/01 06:08:46;;;;;;;3.87;2.60;;;;;;;;;;1861400;75;26379;-44
2022/07/01 06:11:14;;;;;;;5.85;2.77;;;;;;;;;;1858880;75;26311;-45
2022/07/01 06:13:42;;;;;;;8.68;3.75;;;;;;;;;;1860318;75;26386;-50
2022/07/01 06:16:09;;;;;;;5.90;3.60;;;;;;;;;;1856003;75;26266;-50
2022/07/01 06:18:36;;;;;;;6.35;3.52;;;;;;;;;;1851715;75;26293;-45
2022/07/01 06:21:04;;;;;;;7.08;3.55;;;;;;;;;;1851744;75;26316;-46
2022/07/01 06:23:31;;;;;;;4.80;3.37;;;;;;;;;;1850227;76;26313;-47
2022/07/01 06:25:58;;;;;;;7.35;3.33;;;;;;;;;;1852667;76;26273;-60
2022/07/01 06:28:29;;;;;;;7.20;3.92;;;;;;;;;;1853402;76;26374;-51
2022/07/01 06:30:55;;;;;;;13.35;3.98;;;;;;;;;;1848560;76;26336;-47
2022/07/01 06:33:22;;;;;;;5.33;3.60;;;;;;;;;;1853819;76;26340;-49
2022/07/01 06:35:51;;;;;;;4.17;3.33;;;;;;;;;;1843429;76;26312;-48
2022/07/01 06:38:18;;;;;;;8.80;3.90;;;;;;;;;;1844661;76;26262;-47
2022/07/01 06:41:26;;;;;;;5.67;3.70;;;;;;;;;;1847303;76;26269;-53
2022/07/01 06:43:14;;;;;;;5.78;3.75;;;;;;;;;;1842851;76;26277;-45
2022/07/01 06:45:41;;;;;;;7.00;3.85;;;;;;;;;;1851374;76;26302;-42
2022/07/01 06:48:08;;;;;;;4.60;3.62;;;;;;;;;;1852241;76;26336;-54
2022/07/01 06:50:36;;;;;;;8.98;3.52;;;;;;;;;;1844014;76;26273;-54
2022/07/01 06:53:03;;;;;;;7.03;3.47;;;;;;;;;;1848279;76;26363;-45
2022/07/01 06:55:31;;;;;;;6.17;3.40;;;;;;;;;;1846904;76;26249;-44
2022/07/01 06:57:58;;;;;;;4.78;3.40;;;;;;;;;;1842639;76;26792;-44
2022/07/01 07:00:25;;;;;;;5.47;3.33;;;;;;;;;;1846805;76;27842;-47
2022/07/01 07:02:53;;;;;;;3.75;3.10;;;;;;;;;;1845926;76;26275;-48
2022/07/01 07:05:20;;;;;;;6.83;2.77;;;;;;;;;;1850213;76;26270;-49
2022/07/01 07:07:47;;;;;;;3.47;2.70;;;;;;;;;;1848485;76;26300;-46
2022/07/01 07:10:14;;;;;;;5.20;2.92;;;;;;;;;;1844329;76;26231;-47
2022/07/01 07:12:42;;;;;;;4.70;2.85;;;;;;;;;;1847823;76;26702;-54
2022/07/01 07:15:09;;;;;;;3.25;2.67;;;;;;;;;;1840974;76;26627;-51
2022/07/01 07:17:36;;;;;;;3.35;2.72;;;;;;;;;;1844012;76;26342;-44
2022/07/01 07:20:04;;;;;;;2.95;2.50;;;;;;;;;;1842607;76;26323;-46
2022/07/01 07:22:32;;;;;;;3.35;2.60;;;;;;;;;;1849895;76;26255;-44
2022/07/01 07:24:59;;;;;;;4.30;3.05;;;;;;;;;;1850463;76;26728;-43
2022/07/01 07:27:26;;;;;;;2.60;2.40;;;;;;;;;;1845546;76;26786;-45
2022/07/01 07:29:53;;;;;;;3.10;2.60;;;;;;;;;;1840880;76;26798;-45
2022/07/01 07:32:21;;;;;;;2.10;2.00;;;;;;;;;;1848071;76;26312;-44
2022/07/01 07:34:48;;;;;;;2.35;2.22;;;;;;;;;;1849793;76;26301;-57
2022/07/01 07:37:15;;;;;;;3.50;2.30;;;;;;;;;;1845503;76;26520;-45
2022/07/01 07:39:42;;;;;;;2.30;2.10;;;;;;;;;;1847684;76;26212;-44
2022/07/01 07:42:10;;;;;;;2.42;2.30;;;;;;;;;;1842948;76;26257;-58
2022/07/01 07:44:37;;;;;;;2.30;2.20;;;;;;;;;;1840678;76;27271;-46
2022/07/01 07:47:05;;;;;;;2.00;1.90;;;;;;;;;;1847455;76;26293;-50
2022/07/01 07:49:32;;;;;;;2.20;2.10;;;;;;;;;;1844320;76;26241;-48
2022/07/01 07:51:59;;;;;;;3.90;2.20;;;;;;;;;;1845348;76;26281;-42
2022/07/01 07:54:27;;;;;;;3.08;2.10;;;;;;;;;;1844030;76;26302;-45
2022/07/01 07:56:54;;;;;;;2.37;2.17;;;;;;;;;;1846214;76;26261;-45
2022/07/01 07:59:21;;;;;;;2.00;1.90;;;;;;;;;;1847970;76;26275;-52
2022/07/01 08:01:48;;;;;;;2.05;1.95;;;;;;;;;;1845879;76;26265;-48
2022/07/01 08:04:16;;;;;;;2.00;1.90;;;;;;;;;;1847182;76;26245;-47
2022/07/01 08:06:43;;;;;;;2.30;2.10;;;;;;;;;;1844314;76;26294;-45
2022/07/01 08:09:10;;;;;;;1.92;1.82;;;;;;;;;;1844768;76;26324;-45
2022/07/01 08:11:38;;;;;;;2.10;2.00;;;;;;;;;;1845743;76;26359;-47
2022/07/01 08:14:05;;;;;;;3.27;2.10;;;;;;;;;;1840649;76;26336;-46
2022/07/01 08:16:33;;;;;;;2.33;2.15;;;;;;;;;;1837837;76;26324;-44
2022/07/01 08:19:02;;;;;;;2.00;1.90;;;;;;;;;;1841071;76;26267;-47
2022/07/01 08:21:30;;;;;;;2.05;1.95;;;;;;;;;;1846866;76;26273;-53
2022/07/01 08:23:57;;;;;;;2.08;1.98;;;;;;;;;;1846267;76;26300;-52
2022/07/01 08:26:24;;;;;;;1.95;1.90;;;;;;;;;;1845130;76;26301;-48
2022/07/01 08:28:52;;;;;;;2.25;2.10;;;;;;;;;;1852643;76;26264;-46
2022/07/01 08:31:19;;;;;;;2.00;1.90;;;;;;;;;;1853781;76;26327;-59
2022/07/01 08:33:46;;;;;;;2.10;2.00;;;;;;;;;;1852998;76;26241;-48
2022/07/01 08:36:13;;;;;;;1.90;1.80;;;;;;;;;;1858073;76;26289;-43
2022/07/01 08:38:41;;;;;;;2.17;2.08;;;;;;;;;;1846900;76;26384;-46
2022/07/01 08:41:08;;;;;;;2.00;1.90;;;;;;;;;;1851433;76;26336;-46
2022/07/01 08:43:35;;;;;;;2.17;2.08;;;;;;;;;;1847051;76;26294;-49
2022/07/01 08:46:03;;;;;;;2.05;1.95;;;;;;;;;;1851687;76;26230;-43
2022/07/01 08:48:31;;;;;;;2.00;1.90;;;;;;;;;;1857356;76;26352;-53
2022/07/01 08:50:58;;;;;;;2.00;1.90;;;;;;;;;;1855153;76;26285;-53
2022/07/01 08:53:25;;;;;;;1.87;1.87;;;;;;;;;;1851303;76;26315;-52
2022/07/01 08:58:38;;;;;;;2.00;1.90;;;;;;;;;;1843652;76;26315;-46
2022/07/01 09:01:15;;;;;;;1.98;1.87;;;;;;;;;;1847567;76;26348;-52
2022/07/01 09:03:43;;;;;;;2.02;1.92;;;;;;;;;;1856249;76;27720;-49
2022/07/01 09:06:15;;;;;;;1.72;1.72;;;;;;;;;;1849659;76;26712;-46
2022/07/01 09:08:42;;;;;;;2.05;1.95;;;;;;;;;;1847460;74;26315;-49
2022/07/01 09:11:13;;;;;;;1.70;1.70;;;;;;;;;;1848843;76;26304;-50
2022/07/01 09:13:41;;;;;;;1.90;1.80;;;;;;;;;;1846446;76;26371;-50
2022/07/01 09:16:15;;;;;;;1.80;1.80;;;;;;;;;;1856388;76;27751;-49
2022/07/01 09:19:02;;;;;;;1.80;1.80;;;;;;;;;;1860034;76;26650;-53
2022/07/01 09:21:31;;;;;;;1.75;1.75;;;;;;;;;;1850461;76;26229;-51
2022/07/01 09:23:59;;;;;;;2.00;1.90;;;;;;;;;;1845039;76;26814;-43
2022/07/01 09:26:27;;;;;;;1.85;1.75;;;;;;;;;;1836752;76;26792;-51
2022/07/01 09:28:56;;;;;;;2.10;2.00;;;;;;;;;;1843869;76;26546;-46
2022/07/01 09:31:25;;;;;;;1.85;1.75;;;;;;;;;;1844066;76;26343;-49
2022/07/01 09:34:06;;;;;;;2.00;1.90;;;;;;;;;;1843093;76;26259;-46
2022/07/01 09:36:33;;;;;;;1.85;1.82;;;;;;;;;;1844525;76;26292;-46
2022/07/01 09:39:04;;;;;;;1.70;1.70;;;;;;;;;;1845771;76;26366;-54
2022/07/01 09:41:38;;;;;;;1.82;1.72;;;;;;;;;;1852787;76;26370;-47
2022/07/01 09:44:05;;;;;;;1.85;1.75;;;;;;;;;;1840390;76;26331;-46
2022/07/01 09:46:33;;;;;;;2.00;2.00;;;;;;;;;;1852325;76;27261;-42
2022/07/01 09:49:00;;;;;;;3.58;1.92;;;;;;;;;;1849985;76;26316;-43
2022/07/01 09:51:29;;;;;;;2.00;1.90;;;;;;;;;;1838130;76;26370;-47
2022/07/01 09:53:56;;;;;;;1.80;1.80;;;;;;;;;;1856183;76;26327;-46
2022/07/01 09:56:24;;;;;;;2.00;1.92;;;;;;;;;;1850747;76;26645;-51
2022/07/01 09:58:51;;;;;;;2.02;1.98;;;;;;;;;;1845724;76;26305;-49
2022/07/01 10:01:19;;;;;;;2.10;2.00;;;;;;;;;;1853356;76;26315;-46
2022/07/01 10:03:46;;;;;;;2.20;2.10;;;;;;;;;;1849214;76;26628;-49
2022/07/01 10:06:15;;;;;;;1.80;1.80;;;;;;;;;;1838674;76;26277;-53
2022/07/01 10:09:01;;;;;;;2.05;2.00;;;;;;;;;;1849485;76;26320;-49
2022/07/01 10:11:38;;;;;;;1.90;1.90;;;;;;;;;;1849304;76;26859;-46
2022/07/01 10:14:07;;;;;;;2.17;2.08;;;;;;;;;;1836006;76;26275;-46
2022/07/01 10:16:36;;;;;;;2.40;2.30;;;;;;;;;;1846088;76;27319;-48
2022/07/01 10:19:10;;;;;;;2.20;2.10;;;;;;;;;;1847567;76;26316;-49
2022/07/01 10:21:38;;;;;;;2.22;2.02;;;;;;;;;;1833573;76;26783;-49
2022/07/01 10:24:12;;;;;;;2.33;2.22;;;;;;;;;;1850562;76;27320;-52
2022/07/01 10:26:40;;;;;;;2.37;2.27;;;;;;;;;;1854692;76;26283;-45
2022/07/01 10:29:26;;;;;;;2.70;2.50;;;;;;;;;;1845566;76;26734;-45
2022/07/01 10:31:54;;;;;;;3.65;2.50;;;;;;;;;;1850474;76;26249;-49
2022/07/01 10:34:23;;;;;;;6.40;2.47;;;;;;;;;;1845736;76;26283;-49
2022/07/01 10:37:06;;;;;;;2.75;2.55;;;;;;;;;;1843164;76;26780;-45
2022/07/01 10:39:52;;;;;;;2.77;2.60;;;;;;;;;;1845008;76;26292;-52
2022/07/01 10:42:19;;;;;;;2.90;2.70;;;;;;;;;;1849447;76;26299;-47
2022/07/01 10:45:03;;;;;;;2.67;2.58;;;;;;;;;;1853760;76;26276;-50
2022/07/01 10:47:31;;;;;;;3.80;2.75;;;;;;;;;;1849581;76;26312;-57
2022/07/01 10:49:59;;;;;;;3.25;2.95;;;;;;;;;;1846002;76;26721;-41
2022/07/01 10:52:26;;;;;;;2.80;2.70;;;;;;;;;;1843271;76;26841;-56
2022/07/01 10:54:55;;;;;;;2.90;2.80;;;;;;;;;;1848082;76;26225;-48
2022/07/01 10:57:24;;;;;;;2.85;2.65;;;;;;;;;;1851775;76;26370;-47
2022/07/01 11:00:02;;;;;;;3.10;2.90;;;;;;;;;;1855362;76;26238;-44
2022/07/01 11:02:37;;;;;;;3.45;3.12;;;;;;;;;;1849501;76;26315;-49
2022/07/01 11:05:06;;;;;;;3.05;2.80;;;;;;;;;;1848187;76;26644;-46
2022/07/01 11:07:35;;;;;;;2.95;2.75;;;;;;;;;;1850080;76;26408;-47
2022/07/01 11:10:03;;;;;;;3.10;2.90;;;;;;;;;;1848153;76;26266;-48
2022/07/01 11:12:31;;;;;;;2.95;2.77;;;;;;;;;;1850340;76;26373;-46
2022/07/01 11:15:01;;;;;;;3.10;2.90;;;;;;;;;;1842248;76;27095;-43
2022/07/01 11:17:29;;;;;;;3.35;2.95;;;;;;;;;;1846302;76;26291;-48
2022/07/01 11:19:57;;;;;;;3.22;3.00;;;;;;;;;;1845649;76;26354;-44
2022/07/01 11:22:29;;;;;;;3.52;3.25;;;;;;;;;;1846865;76;26339;-51
2022/07/01 11:24:58;;;;;;;3.22;3.02;;;;;;;;;;1853114;76;26804;-45
2022/07/01 11:27:25;;;;;;;3.52;3.30;;;;;;;;;;1853357;76;27326;-43
2022/07/01 11:29:53;;;;;;;3.15;2.87;;;;;;;;;;1855043;76;26290;-49
2022/07/01 11:32:34;;;;;;;3.37;3.17;;;;;;;;;;1853929;76;26277;-48
2022/07/01 11:35:02;;;;;;;4.47;3.12;;;;;;;;;;1858630;76;26261;-47
2022/07/01 11:40:17;;;;;;;3.20;3.10;;;;;;;;;;1816045;77;26342;-48
2022/07/01 11:42:45;;;;;;;3.37;3.08;;;;;;;;;;1809718;77;26641;-51
2022/07/01 11:45:26;;;;;;;3.10;3.00;;;;;;;;;;1814180;77;26826;-47
2022/07/01 11:47:54;;;;;;;12.65;3.45;;;;;;;;;;1804596;77;26377;-50
2022/07/01 11:50:21;;;;;;;3.52;3.10;;;;;;;;;;1816261;77;26299;-46
2022/07/01 11:52:49;;;;;;;3.33;3.12;;;;;;;;;;1815175;77;26287;-43
2022/07/01 11:55:17;;;;;;;3.02;2.90;;;;;;;;;;1816719;77;26316;-50
2022/07/01 11:57:45;;;;;;;3.58;3.10;;;;;;;;;;1782822;80;26310;-46
2022/07/01 12:00:13;;;;;;;4.33;3.10;;;;;;;;;;1782717;80;26299;-53
2022/07/01 12:02:40;;;;;;;3.27;3.05;;;;;;;;;;1783542;80;26350;-53
2022/07/01 12:05:07;;;;;;;3.22;3.02;;;;;;;;;;1782383;80;26357;-46
2022/07/01 12:07:35;;;;;;;3.27;3.10;;;;;;;;;;1784955;80;26320;-49
2022/07/01 12:10:02;;;;;;;3.33;3.15;;;;;;;;;;1783160;80;26842;-45
2022/07/01 12:12:29;;;;;;;3.20;3.00;;;;;;;;;;1780968;80;26404;-46
2022/07/01 12:14:58;;;;;;;4.08;3.10;;;;;;;;;;1785012;78;26835;-51
2022/07/01 12:17:26;;;;;;;3.30;3.10;;;;;;;;;;1781134;80;26279;-45
2022/07/01 12:19:54;;;;;;;3.60;3.25;;;;;;;;;;1785250;80;26308;-47
2022/07/01 12:22:24;;;;;;;3.55;3.25;;;;;;;;;;1783519;80;26298;-54
2022/07/01 12:24:53;;;;;;;3.58;3.37;;;;;;;;;;1781888;80;26362;-56
2022/07/01 12:27:23;;;;;;;3.70;3.50;;;;;;;;;;1778890;80;26452;-47
2022/07/01 12:29:52;;;;;;;3.85;3.55;;;;;;;;;;1783339;80;26362;-44
2022/07/01 12:32:23;;;;;;;3.72;3.42;;;;;;;;;;1783921;80;26314;-50
2022/07/01 12:35:01;;;;;;;3.98;3.67;;;;;;;;;;1783711;80;26361;-43
2022/07/01 12:37:33;;;;;;;3.40;3.20;;;;;;;;;;1783736;80;26715;-42
2022/07/01 12:40:01;;;;;;;3.50;3.20;;;;;;;;;;1783639;80;26237;-46
2022/07/01 12:42:39;;;;;;;3.45;3.25;;;;;;;;;;1790170;80;26708;-49
2022/07/01 12:45:08;;;;;;;3.98;3.60;;;;;;;;;;1794847;80;26386;-50
2022/07/01 12:47:39;;;;;;;3.50;3.30;;;;;;;;;;1793898;80;27329;-44
2022/07/01 12:50:17;;;;;;;3.90;3.60;;;;;;;;;;1786313;80;26296;-50
2022/07/01 12:52:46;;;;;;;3.80;3.50;;;;;;;;;;1795605;80;26806;-46
2022/07/01 12:55:15;;;;;;;3.67;3.37;;;;;;;;;;1795670;80;26292;-47
2022/07/01 12:57:42;;;;;;;3.25;3.05;;;;;;;;;;1793753;80;26337;-47
2022/07/01 13:00:10;;;;;;;3.40;3.20;;;;;;;;;;1796329;80;26336;-45
2022/07/01 13:02:37;;;;;;;3.40;3.20;;;;;;;;;;1785849;80;26264;-49
2022/07/01 13:05:05;;;;;;;4.87;3.33;;;;;;;;;;1789124;79;26365;-39
2022/07/01 13:07:32;;;;;;;3.30;3.10;;;;;;;;;;1789697;78;27319;-40
2022/07/01 13:10:00;;;;;;;3.75;3.20;;;;;;;;;;1790549;80;26751;-47
2022/07/01 13:12:27;;;;;;;3.83;3.55;;;;;;;;;;1785164;80;26370;-47
2022/07/01 13:14:54;;;;;;;3.80;3.50;;;;;;;;;;1793231;80;26284;-53
2022/07/01 13:17:22;;;;;;;4.00;3.70;;;;;;;;;;1791806;80;27343;-47
2022/07/01 13:19:49;;;;;;;3.60;3.40;;;;;;;;;;1793512;80;26287;-48
2022/07/01 13:22:16;;;;;;;4.00;3.70;;;;;;;;;;1794704;80;26354;-50
2022/07/01 13:24:44;;;;;;;3.70;3.40;;;;;;;;;;1784264;79;26330;-43
2022/07/01 13:27:12;;;;;;;3.87;3.58;;;;;;;;;;1799489;79;26272;-47
2022/07/01 13:29:40;;;;;;;3.62;3.42;;;;;;;;;;1813031;78;26613;-45
2022/07/01 13:32:07;;;;;;;3.90;3.60;;;;;;;;;;1795500;79;26376;-53
2022/07/01 13:34:34;;;;;;;3.52;3.33;;;;;;;;;;1801589;79;26374;-50
2022/07/01 13:37:02;;;;;;;3.72;3.40;;;;;;;;;;1851702;76;26206;-48
2022/07/01 13:39:29;;;;;;;3.90;3.60;;;;;;;;;;1854697;76;26339;-50
2022/07/01 13:41:56;;;;;;;4.00;3.70;;;;;;;;;;1847448;77;26342;-45
2022/07/01 13:44:24;;;;;;;3.77;3.50;;;;;;;;;;1852328;77;26312;-46
2022/07/01 13:46:51;;;;;;;3.55;3.35;;;;;;;;;;1856928;76;26736;-49
2022/07/01 13:49:18;;;;;;;4.17;3.70;;;;;;;;;;1846334;76;26860;-51
2022/07/01 13:51:46;;;;;;;3.37;3.22;;;;;;;;;;1837667;77;26378;-42
2022/07/01 13:54:13;;;;;;;3.80;3.60;;;;;;;;;;1844493;77;26253;-54
2022/07/01 13:56:41;;;;;;;3.83;3.52;;;;;;;;;;1837454;77;26266;-44
2022/07/01 13:59:08;;;;;;;4.08;3.77;;;;;;;;;;1841474;76;26293;-51
2022/07/01 14:01:37;;;;;;;3.70;3.40;;;;;;;;;;1844179;77;26241;-48
2022/07/01 14:04:04;;;;;;;4.17;3.77;;;;;;;;;;1844467;77;26308;-50
2022/07/01 14:06:32;;;;;;;3.62;3.33;;;;;;;;;;1840631;76;26285;-46
2022/07/01 14:09:00;;;;;;;3.35;3.15;;;;;;;;;;1853486;76;27537;-46
2022/07/01 14:11:27;;;;;;;3.75;3.45;;;;;;;;;;1850830;76;26359;-45
2022/07/01 14:13:54;;;;;;;4.00;3.70;;;;;;;;;;1854195;76;26331;-46
2022/07/01 14:16:21;;;;;;;3.92;3.50;;;;;;;;;;1846210;77;26342;-52
2022/07/01 14:18:50;;;;;;;3.40;3.20;;;;;;;;;;1849274;76;26748;-44
2022/07/01 14:21:18;;;;;;;3.92;3.70;;;;;;;;;;1832365;76;26258;-46
2022/07/01 14:23:45;;;;;;;3.50;3.27;;;;;;;;;;1855560;76;26807;-44
2022/07/01 14:26:13;;;;;;;3.47;3.27;;;;;;;;;;1844260;76;26722;-45
2022/07/01 14:28:40;;;;;;;3.95;3.75;;;;;;;;;;1836964;76;26266;-41
2022/07/01 14:31:07;;;;;;;3.90;3.70;;;;;;;;;;1851737;77;26262;-46
2022/07/01 14:33:35;;;;;;;3.85;3.65;;;;;;;;;;1854676;76;25691;-50
2022/07/01 14:36:02;;;;;;;3.70;3.50;;;;;;;;;;1856331;76;26253;-45
2022/07/01 14:38:30;;;;;;;4.10;3.80;;;;;;;;;;1850629;76;26338;-42
2022/07/01 14:40:57;;;;;;;3.50;3.30;;;;;;;;;;1845113;77;26402;-46
2022/07/01 14:43:24;;;;;;;3.65;3.45;;;;;;;;;;1844665;77;26269;-43
2022/07/01 14:45:51;;;;;;;3.67;3.45;;;;;;;;;;1840068;76;26289;-47
2022/07/01 14:48:19;;;;;;;4.10;3.70;;;;;;;;;;1847470;76;26712;-46
2022/07/01 14:50:46;;;;;;;3.60;3.40;;;;;;;;;;1837724;77;26617;-48
2022/07/01 14:53:13;;;;;;;3.65;3.37;;;;;;;;;;1843181;77;26685;-46
2022/07/01 14:55:40;;;;;;;3.47;3.27;;;;;;;;;;1847479;77;26777;-42
2022/07/01 14:58:08;;;;;;;3.83;3.55;;;;;;;;;;1854888;76;26841;-48
2022/07/01 15:00:36;;;;;;;3.83;3.60;;;;;;;;;;1846160;76;26331;-43
2022/07/01 15:03:04;;;;;;;3.72;3.52;;;;;;;;;;1850510;76;26281;-46